Time;durP1;ratioP1;P1;durP2;ratioP2;P2;SDS_P1;SDS_P2;PMS_P1;PMS_P2;Temp;Humidity;BMP_temperature;BMP_pressure;BME280_temperature;BME280_humidity;BME280_pressure;Samples;Min_cycle;Max_cycle;Signal;HPM_P1;HPM_P2
2021/03/22 00:00:31;;;;;;;;;;;;;;;;;;4951291;28;19972;-67
2021/03/22 00:02:57;;;;;;;;;;;;;;;;;;4951335;28;20351;-68
2021/03/22 00:05:24;;;;;;;;;;;;;;;;;;4947645;29;19942;-67
2021/03/22 00:07:50;;;;;;;;;;;;;;;;;;4954741;28;19993;-67
2021/03/22 00:10:20;;;;;;;;;;;;;;;;;;4948072;29;20441;-67
2021/03/22 00:12:46;;;;;;;;;;;;;;;;;;4946512;28;19965;-67
2021/03/22 00:15:13;;;;;;;;;;;;;;;;;;4952506;28;19934;-67
2021/03/22 00:17:39;;;;;;;;;;;;;;;;;;4948013;29;19926;-67
2021/03/22 00:20:06;;;;;;;;;;;;;;;;;;4953664;29;19930;-67
2021/03/22 00:22:32;;;;;;;;;;;;;;;;;;4952553;28;20374;-67
2021/03/22 00:24:59;;;;;;;;;;;;;;;;;;4949557;28;20076;-67
2021/03/22 00:27:25;;;;;;;;;;;;;;;;;;4954179;28;19934;-67
2021/03/22 00:29:52;;;;;;;;;;;;;;;;;;4949811;28;19945;-67
2021/03/22 00:32:18;;;;;;;;;;;;;;;;;;4948899;29;20396;-67
2021/03/22 00:34:45;;;;;;;;;;;;;;;;;;4951807;28;20029;-67
2021/03/22 00:37:11;;;;;;;;;;;;;;;;;;4953499;28;20021;-67
2021/03/22 00:39:38;;;;;;;;;;;;;;;;;;4950983;28;20643;-67
2021/03/22 00:42:04;;;;;;;;;;;;;;;;;;4951913;28;19933;-68
2021/03/22 00:44:31;;;;;;;;;;;;;;;;;;4946342;28;20303;-67
2021/03/22 00:46:57;;;;;;;;;;;;;;;;;;4949409;29;19926;-67
2021/03/22 00:49:24;;;;;;;;;;;;;;;;;;4953695;28;20280;-67
2021/03/22 00:51:50;;;;;;;;;;;;;;;;;;4948260;28;19962;-67
2021/03/22 00:54:16;;;;;;;;;;;;;;;;;;4945917;28;19927;-67
2021/03/22 00:56:43;;;;;;;;;;;;;;;;;;4952447;29;19935;-67
2021/03/22 00:59:09;;;;;;;;;;;;;;;;;;4952033;28;19934;-67
2021/03/22 01:01:36;;;;;;;;;;;;;;;;;;4954102;28;19933;-67
2021/03/22 01:04:03;;;;;;;;;;;;;;;;;;4950154;28;20347;-67
2021/03/22 01:06:29;;;;;;;;;;;;;;;;;;4946252;28;19974;-67
2021/03/22 01:08:56;;;;;;;;;;;;;;;;;;4946702;29;19942;-67
2021/03/22 01:11:22;;;;;;;;;;;;;;;;;;4951875;28;20338;-67
2021/03/22 01:13:49;;;;;;;;;;;;;;;;;;4950740;28;19930;-68
2021/03/22 01:16:15;;;;;;;;;;;;;;;;;;4951818;28;20009;-68
2021/03/22 01:18:42;;;;;;;;;;;;;;;;;;4949561;28;20299;-67
2021/03/22 01:21:08;;;;;;;;;;;;;;;;;;4950646;29;20193;-68
2021/03/22 01:23:35;;;;;;;;;;;;;;;;;;4948839;28;19926;-68
2021/03/22 01:26:01;;;;;;;;;;;;;;;;;;4942729;29;20455;-68
2021/03/22 01:28:28;;;;;;;;;;;;;;;;;;4951558;29;19930;-68
2021/03/22 01:30:56;;;;;;;;;;;;;;;;;;4950721;29;20038;-67
2021/03/22 01:33:25;;;;;;;;;;;;;;;;;;4951887;29;19930;-68
2021/03/22 01:35:51;;;;;;;;;;;;;;;;;;4949597;29;19926;-68
2021/03/22 01:38:18;;;;;;;;;;;;;;;;;;4949495;28;19935;-68
2021/03/22 01:40:44;;;;;;;;;;;;;;;;;;4945410;29;20012;-68
2021/03/22 01:43:11;;;;;;;;;;;;;;;;;;4951149;29;20350;-68
2021/03/22 01:45:37;;;;;;;;;;;;;;;;;;4944875;29;19926;-67
2021/03/22 01:48:04;;;;;;;;;;;;;;;;;;4952651;28;20306;-67
2021/03/22 01:50:30;;;;;;;;;;;;;;;;;;4948206;28;20009;-68
2021/03/22 01:52:57;;;;;;;;;;;;;;;;;;4950690;28;19926;-68
2021/03/22 01:55:23;;;;;;;;;;;;;;;;;;4950373;28;19970;-68
2021/03/22 01:57:50;;;;;;;;;;;;;;;;;;4950441;28;19941;-67
2021/03/22 02:00:18;;;;;;;;;;;;;;;;;;4950987;28;19934;-68
2021/03/22 02:02:45;;;;;;;;;;;;;;;;;;4945734;28;19930;-68
2021/03/22 02:05:11;;;;;;;;;;;;;;;;;;4945371;28;19989;-67
2021/03/22 02:07:38;;;;;;;;;;;;;;;;;;4946469;28;19930;-68
2021/03/22 02:10:04;;;;;;;;;;;;;;;;;;4952325;28;20306;-68
2021/03/22 02:12:31;;;;;;;;;;;;;;;;;;4948733;28;19932;-68
2021/03/22 02:14:57;;;;;;;;;;;;;;;;;;4949667;28;20006;-68
2021/03/22 02:17:24;;;;;;;;;;;;;;;;;;4947600;28;19935;-67
2021/03/22 02:19:50;;;;;;;;;;;;;;;;;;4948750;29;19927;-68
2021/03/22 02:22:17;;;;;;;;;;;;;;;;;;4947093;28;20276;-68
2021/03/22 02:24:43;;;;;;;;;;;;;;;;;;4950990;29;19926;-68
2021/03/22 02:27:10;;;;;;;;;;;;;;;;;;4955353;29;19935;-68
2021/03/22 02:29:36;;;;;;;;;;;;;;;;;;4943336;28;19927;-68
2021/03/22 02:32:03;;;;;;;;;;;;;;;;;;4946466;28;19935;-67
2021/03/22 02:34:29;;;;;;;;;;;;;;;;;;4953637;29;21445;-68
2021/03/22 02:36:55;;;;;;;;;;;;;;;;;;4954749;28;19927;-68
2021/03/22 02:39:22;;;;;;;;;;;;;;;;;;4954125;28;19927;-68
2021/03/22 02:41:48;;;;;;;;;;;;;;;;;;4952752;28;19927;-68
2021/03/22 02:44:15;;;;;;;;;;;;;;;;;;4955217;29;19926;-68
2021/03/22 02:46:41;;;;;;;;;;;;;;;;;;4952493;29;19980;-67
2021/03/22 02:49:08;;;;;;;;;;;;;;;;;;4953849;29;20370;-68
2021/03/22 02:51:37;;;;;;;;;;;;;;;;;;4947671;28;20463;-67
2021/03/22 02:54:04;;;;;;;;;;;;;;;;;;4950174;28;19980;-68
2021/03/22 02:56:30;;;;;;;;;;;;;;;;;;4952563;28;19930;-68
2021/03/22 02:58:57;;;;;;;;;;;;;;;;;;4955280;29;19935;-67
2021/03/22 03:01:23;;;;;;;;;;;;;;;;;;4954584;28;19927;-68
2021/03/22 03:03:50;;;;;;;;;;;;;;;;;;4945840;28;19926;-68
2021/03/22 03:06:16;;;;;;;;;;;;;;;;;;4951505;29;19926;-68
2021/03/22 03:08:43;;;;;;;;;;;;;;;;;;4955422;28;19926;-68
2021/03/22 03:11:09;;;;;;;;;;;;;;;;;;4944680;29;19933;-68
2021/03/22 03:13:36;;;;;;;;;;;;;;;;;;4952232;28;19934;-67
2021/03/22 03:16:02;;;;;;;;;;;;;;;;;;4949036;28;19937;-68
2021/03/22 03:18:29;;;;;;;;;;;;;;;;;;4952484;29;19933;-67
2021/03/22 03:20:56;;;;;;;;;;;;;;;;;;4953741;28;20013;-67
2021/03/22 03:23:23;;;;;;;;;;;;;;;;;;4951788;28;20446;-68
2021/03/22 03:25:49;;;;;;;;;;;;;;;;;;4953551;28;20065;-68
2021/03/22 03:28:16;;;;;;;;;;;;;;;;;;4945299;28;20416;-68
2021/03/22 03:30:42;;;;;;;;;;;;;;;;;;4951417;28;19926;-68
2021/03/22 03:33:09;;;;;;;;;;;;;;;;;;4948468;28;19937;-68
2021/03/22 03:35:35;;;;;;;;;;;;;;;;;;4949584;28;19937;-68
2021/03/22 03:38:02;;;;;;;;;;;;;;;;;;4949609;28;19937;-67
2021/03/22 03:40:28;;;;;;;;;;;;;;;;;;4944142;28;19931;-68
2021/03/22 03:42:55;;;;;;;;;;;;;;;;;;4947166;29;20347;-67
2021/03/22 03:45:21;;;;;;;;;;;;;;;;;;4946299;29;19927;-68
2021/03/22 03:47:48;;;;;;;;;;;;;;;;;;4949829;28;20347;-68
2021/03/22 03:50:14;;;;;;;;;;;;;;;;;;4955177;28;20371;-67
2021/03/22 03:52:41;;;;;;;;;;;;;;;;;;4970605;23;20508;-63
2021/03/22 03:55:07;;;;;;;;;;;;;;;;;;4967784;28;19965;-63
2021/03/22 03:57:34;;;;;;;;;;;;;;;;;;4971109;28;20021;-64
2021/03/22 04:00:00;;;;;;;;;;;;;;;;;;4964655;28;19926;-64
2021/03/22 04:02:27;;;;;;;;;;;;;;;;;;4971086;28;19933;-62
2021/03/22 04:04:53;;;;;;;;;;;;;;;;;;4975327;28;19926;-64
2021/03/22 04:07:20;;;;;;;;;;;;;;;;;;4979062;28;20380;-63
2021/03/22 04:09:46;;;;;;;;;;;;;;;;;;4982334;28;19926;-64
2021/03/22 04:12:13;;;;;;;;;;;;;;;;;;4980105;28;19926;-63
2021/03/22 04:14:39;;;;;;;;;;;;;;;;;;4981275;28;19973;-63
2021/03/22 04:17:06;;;;;;;;;;;;;;;;;;4983340;28;19960;-63
2021/03/22 04:19:32;;;;;;;;;;;;;;;;;;4974080;28;20581;-63
2021/03/22 04:21:59;;;;;;;;;;;;;;;;;;4974629;28;19965;-63
2021/03/22 04:24:26;;;;;;;;;;;;;;;;;;4975263;28;19992;-63
2021/03/22 04:26:52;;;;;;;;;;;;;;;;;;4974064;28;19930;-63
2021/03/22 04:29:19;;;;;;;;;;;;;;;;;;4977500;28;19973;-65
2021/03/22 04:31:45;;;;;;;;;;;;;;;;;;4975305;28;19927;-64
2021/03/22 04:34:12;;;;;;;;;;;;;;;;;;4974581;28;20017;-63
2021/03/22 04:36:38;;;;;;;;;;;;;;;;;;4978458;28;20020;-63
2021/03/22 04:39:05;;;;;;;;;;;;;;;;;;4982981;28;20358;-64
2021/03/22 04:41:31;;;;;;;;;;;;;;;;;;4977463;28;20289;-63
2021/03/22 04:43:58;;;;;;;;;;;;;;;;;;4980534;28;19926;-64
2021/03/22 04:46:24;;;;;;;;;;;;;;;;;;4972004;28;19984;-64
2021/03/22 04:48:50;;;;;;;;;;;;;;;;;;4970006;28;19988;-64
2021/03/22 04:51:17;;;;;;;;;;;;;;;;;;4981474;28;19930;-63
2021/03/22 04:53:43;;;;;;;;;;;;;;;;;;4974274;28;20058;-62
2021/03/22 04:56:10;;;;;;;;;;;;;;;;;;4974480;28;19938;-68
2021/03/22 04:58:36;;;;;;;;;;;;;;;;;;4984553;28;20017;-63
2021/03/22 05:01:03;;;;;;;;;;;;;;;;;;4974134;28;20404;-63
2021/03/22 05:03:29;;;;;;;;;;;;;;;;;;4976319;28;20040;-63
2021/03/22 05:05:56;;;;;;;;;;;;;;;;;;4978890;28;20061;-64
2021/03/22 05:08:22;;;;;;;;;;;;;;;;;;4977202;28;20291;-63
2021/03/22 05:10:49;;;;;;;;;;;;;;;;;;4972635;28;20013;-65
2021/03/22 05:13:16;;;;;;;;;;;;;;;;;;4970735;28;20002;-64
2021/03/22 05:15:42;;;;;;;;;;;;;;;;;;4974858;28;20327;-63
2021/03/22 05:18:09;;;;;;;;;;;;;;;;;;4977176;28;19932;-64
2021/03/22 05:20:35;;;;;;;;;;;;;;;;;;4982516;28;20018;-65
2021/03/22 05:23:02;;;;;;;;;;;;;;;;;;4975185;28;19972;-64
2021/03/22 05:25:28;;;;;;;;;;;;;;;;;;4975477;28;19933;-61
2021/03/22 05:27:55;;;;;;;;;;;;;;;;;;4973071;28;20516;-65
2021/03/22 05:30:21;;;;;;;;;;;;;;;;;;4973566;28;19930;-64
2021/03/22 05:32:47;;;;;;;;;;;;;;;;;;4972660;28;19984;-62
2021/03/22 05:35:14;;;;;;;;;;;;;;;;;;4972838;28;19933;-62
2021/03/22 05:37:40;;;;;;;;;;;;;;;;;;4980366;28;20029;-65
2021/03/22 05:40:07;;;;;;;;;;;;;;;;;;4983598;28;19977;-64
2021/03/22 05:42:33;;;;;;;;;;;;;;;;;;4979596;28;20363;-65
2021/03/22 05:45:00;;;;;;;;;;;;;;;;;;4988907;28;19933;-63
2021/03/22 05:47:26;;;;;;;;;;;;;;;;;;4973363;28;19926;-64
2021/03/22 05:49:53;;;;;;;;;;;;;;;;;;4977452;28;19929;-63
2021/03/22 05:52:19;;;;;;;;;;;;;;;;;;4974937;28;19925;-62
2021/03/22 05:54:46;;;;;;;;;;;;;;;;;;4978527;28;19973;-65
2021/03/22 05:57:12;;;;;;;;;;;;;;;;;;4975214;28;20020;-63
2021/03/22 05:59:39;;;;;;;;;;;;;;;;;;4968694;28;20302;-64
2021/03/22 06:02:05;;;;;;;;;;;;;;;;;;4973575;28;19932;-65
2021/03/22 06:04:32;;;;;;;;;;;;;;;;;;4975656;28;20017;-65
2021/03/22 06:06:58;;;;;;;;;;;;;;;;;;4975493;28;19926;-66
2021/03/22 06:09:25;;;;;;;;;;;;;;;;;;4980237;28;19974;-66
2021/03/22 06:11:52;;;;;;;;;;;;;;;;;;4984741;28;19930;-67
2021/03/22 06:14:18;;;;;;;;;;;;;;;;;;4983915;28;20221;-66
2021/03/22 06:16:45;;;;;;;;;;;;;;;;;;4982229;28;20420;-63
2021/03/22 06:19:12;;;;;;;;;;;;;;;;;;4985574;28;19937;-66
2021/03/22 06:21:38;;;;;;;;;;;;;;;;;;4983120;28;19973;-66
2021/03/22 06:24:05;;;;;;;;;;;;;;;;;;4987112;28;20436;-66
2021/03/22 06:26:31;;;;;;;;;;;;;;;;;;4994437;28;19966;-65
2021/03/22 06:28:58;;;;;;;;;;;;;;;;;;4985425;28;19965;-66
2021/03/22 06:31:24;;;;;;;;;;;;;;;;;;4984869;28;19930;-65
2021/03/22 06:33:51;;;;;;;;;;;;;;;;;;4988769;28;20147;-66
2021/03/22 06:36:17;;;;;;;;;;;;;;;;;;4983771;28;19980;-66
2021/03/22 06:38:44;;;;;;;;;;;;;;;;;;4980885;28;19965;-66
2021/03/22 06:41:10;;;;;;;;;;;;;;;;;;4986849;28;19941;-69
2021/03/22 06:43:37;;;;;;;;;;;;;;;;;;4985431;28;20016;-66
2021/03/22 06:46:03;;;;;;;;;;;;;;;;;;4984272;28;20492;-64
2021/03/22 06:48:30;;;;;;;;;;;;;;;;;;4981200;28;20017;-66
2021/03/22 06:50:56;;;;;;;;;;;;;;;;;;4978388;28;19926;-66
2021/03/22 06:53:23;;;;;;;;;;;;;;;;;;4977978;28;19926;-66
2021/03/22 06:55:49;;;;;;;;;;;;;;;;;;4983904;28;20017;-66
2021/03/22 06:58:16;;;;;;;;;;;;;;;;;;4977854;28;19926;-66
2021/03/22 07:00:42;;;;;;;;;;;;;;;;;;4976073;28;19988;-64
2021/03/22 07:03:08;;;;;;;;;;;;;;;;;;4979911;28;19926;-65
2021/03/22 07:05:36;;;;;;;;;;;;;;;;;;4980796;28;20310;-65
2021/03/22 07:08:02;;;;;;;;;;;;;;;;;;4981667;28;19926;-65
2021/03/22 07:10:29;;;;;;;;;;;;;;;;;;4976057;28;19926;-65
2021/03/22 07:12:55;;;;;;;;;;;;;;;;;;4977932;28;20064;-66
2021/03/22 07:15:22;;;;;;;;;;;;;;;;;;4975559;28;19972;-67
2021/03/22 07:17:49;;;;;;;;;;;;;;;;;;4972347;28;19926;-65
2021/03/22 07:20:15;;;;;;;;;;;;;;;;;;4978549;28;19948;-66
2021/03/22 07:22:42;;;;;;;;;;;;;;;;;;4976171;28;20020;-67
2021/03/22 07:25:08;;;;;;;;;;;;;;;;;;4970768;28;19926;-67
2021/03/22 07:27:35;;;;;;;;;;;;;;;;;;4969346;28;19926;-64
2021/03/22 07:30:01;;;;;;;;;;;;;;;;;;4958312;28;19976;-65
2021/03/22 07:32:28;;;;;;;;;;;;;;;;;;4970407;28;19926;-65
2021/03/22 07:34:54;;;;;;;;;;;;;;;;;;4966895;28;19980;-67
2021/03/22 07:37:21;;;;;;;;;;;;;;;;;;4970256;28;19926;-67
2021/03/22 07:39:47;;;;;;;;;;;;;;;;;;4966715;28;19926;-65
2021/03/22 07:42:14;;;;;;;;;;;;;;;;;;4958601;28;20413;-66
2021/03/22 07:44:40;;;;;;;;;;;;;;;;;;4970179;28;19934;-67
2021/03/22 07:47:07;;;;;;;;;;;;;;;;;;4966382;28;19926;-66
2021/03/22 07:49:33;;;;;;;;;;;;;;;;;;4960777;28;19981;-66
2021/03/22 07:52:00;;;;;;;;;;;;;;;;;;4972181;28;19930;-64
2021/03/22 07:54:26;;;;;;;;;;;;;;;;;;4969538;28;20366;-67
2021/03/22 07:56:53;;;;;;;;;;;;;;;;;;4968041;28;20358;-65
2021/03/22 07:59:19;;;;;;;;;;;;;;;;;;4969758;28;20346;-67
2021/03/22 08:01:46;;;;;;;;;;;;;;;;;;4969363;28;19937;-66
2021/03/22 08:04:12;;;;;;;;;;;;;;;;;;4965382;28;19926;-65
2021/03/22 08:06:39;;;;;;;;;;;;;;;;;;4967653;28;20003;-67
2021/03/22 08:09:05;;;;;;;;;;;;;;;;;;4961626;28;19930;-67
2021/03/22 08:11:32;;;;;;;;;;;;;;;;;;4969916;28;19930;-63
2021/03/22 08:13:58;;;;;;;;;;;;;;;;;;4966485;28;21755;-65
2021/03/22 08:16:25;;;;;;;;;;;;;;;;;;4965961;28;20374;-66
2021/03/22 08:18:51;;;;;;;;;;;;;;;;;;4968565;28;19934;-66
2021/03/22 08:21:18;;;;;;;;;;;;;;;;;;4968252;28;19932;-66
2021/03/22 08:23:44;;;;;;;;;;;;;;;;;;4966347;28;19934;-67
2021/03/22 08:26:11;;;;;;;;;;;;;;;;;;4971910;28;19936;-67
2021/03/22 08:28:38;;;;;;;;;;;;;;;;;;4965310;28;20515;-67
2021/03/22 08:31:04;;;;;;;;;;;;;;;;;;4966057;28;19929;-67
2021/03/22 08:33:31;;;;;;;;;;;;;;;;;;4970832;28;19973;-66
2021/03/22 08:35:58;;;;;;;;;;;;;;;;;;4968539;28;19968;-66
2021/03/22 08:38:24;;;;;;;;;;;;;;;;;;4963593;28;19926;-66
2021/03/22 08:40:51;;;;;;;;;;;;;;;;;;4959848;28;20271;-67
2021/03/22 08:43:17;;;;;;;;;;;;;;;;;;4975053;28;20623;-66
2021/03/22 08:45:44;;;;;;;;;;;;;;;;;;4970940;28;19976;-66
2021/03/22 08:48:11;;;;;;;;;;;;;;;;;;4968913;28;19934;-67
2021/03/22 08:50:37;;;;;;;;;;;;;;;;;;4966084;28;20341;-66
2021/03/22 08:53:04;;;;;;;;;;;;;;;;;;4971150;28;20425;-66
2021/03/22 08:55:30;;;;;;;;;;;;;;;;;;4970528;28;20322;-65
2021/03/22 08:57:57;;;;;;;;;;;;;;;;;;4968420;28;19933;-66
2021/03/22 09:00:23;;;;;;;;;;;;;;;;;;4966475;28;19933;-66
2021/03/22 09:02:50;;;;;;;;;;;;;;;;;;4968020;28;20017;-65
2021/03/22 09:05:16;;;;;;;;;;;;;;;;;;4968475;28;20025;-66
2021/03/22 09:07:43;;;;;;;;;;;;;;;;;;4968503;28;19926;-64
2021/03/22 09:10:09;;;;;;;;;;;;;;;;;;4963481;28;20017;-66
2021/03/22 09:12:36;;;;;;;;;;;;;;;;;;4970295;28;21838;-66
2021/03/22 09:15:02;;;;;;;;;;;;;;;;;;4967179;28;19926;-65
2021/03/22 09:17:29;;;;;;;;;;;;;;;;;;4969528;28;20560;-66
2021/03/22 09:19:55;;;;;;;;;;;;;;;;;;4966675;28;19926;-66
2021/03/22 09:22:22;;;;;;;;;;;;;;;;;;4973738;28;19947;-66
2021/03/22 09:24:48;;;;;;;;;;;;;;;;;;4967566;28;19926;-67
2021/03/22 09:27:15;;;;;;;;;;;;;;;;;;4964426;28;19954;-67
2021/03/22 09:29:41;;;;;;;;;;;;;;;;;;4970331;28;20401;-66
2021/03/22 09:32:08;;;;;;;;;;;;;;;;;;4970966;28;20387;-65
2021/03/22 09:34:34;;;;;;;;;;;;;;;;;;4967860;28;19926;-66
2021/03/22 09:37:01;;;;;;;;;;;;;;;;;;4968948;28;20390;-68
2021/03/22 09:39:28;;;;;;;;;;;;;;;;;;4962887;28;19961;-67
2021/03/22 09:41:54;;;;;;;;;;;;;;;;;;4964868;28;20302;-66
2021/03/22 09:44:21;;;;;;;;;;;;;;;;;;4964125;28;19937;-65
2021/03/22 09:46:47;;;;;;;;;;;;;;;;;;4970122;28;19926;-66
2021/03/22 09:49:14;;;;;;;;;;;;;;;;;;4968441;28;20349;-64
2021/03/22 09:51:40;;;;;;;;;;;;;;;;;;4970430;28;19986;-68
2021/03/22 09:54:07;;;;;;;;;;;;;;;;;;4967965;28;19933;-67
2021/03/22 09:56:33;;;;;;;;;;;;;;;;;;4966077;28;20018;-65
2021/03/22 09:59:00;;;;;;;;;;;;;;;;;;4968147;28;19926;-66
2021/03/22 10:01:26;;;;;;;;;;;;;;;;;;4968754;28;19926;-66
2021/03/22 10:03:53;;;;;;;;;;;;;;;;;;4971033;28;19972;-67
2021/03/22 10:06:19;;;;;;;;;;;;;;;;;;4967315;28;19930;-66
2021/03/22 10:08:46;;;;;;;;;;;;;;;;;;4962732;28;20012;-66
2021/03/22 10:11:12;;;;;;;;;;;;;;;;;;4966709;28;19933;-63
2021/03/22 10:13:39;;;;;;;;;;;;;;;;;;4963960;28;19981;-66
2021/03/22 10:16:05;;;;;;;;;;;;;;;;;;4964713;28;19947;-65
2021/03/22 10:18:32;;;;;;;;;;;;;;;;;;4963528;28;20355;-66
2021/03/22 10:20:59;;;;;;;;;;;;;;;;;;4961944;28;19930;-64
2021/03/22 10:23:25;;;;;;;;;;;;;;;;;;4961771;28;19968;-69
2021/03/22 10:25:52;;;;;;;;;;;;;;;;;;4961066;28;20358;-65
2021/03/22 10:28:18;;;;;;;;;;;;;;;;;;4962064;28;20017;-65
2021/03/22 10:30:45;;;;;;;;;;;;;;;;;;4963906;28;19945;-65
2021/03/22 10:33:11;;;;;;;;;;;;;;;;;;4965590;28;19973;-65
2021/03/22 10:35:38;;;;;;;;;;;;;;;;;;4961849;28;19933;-66
2021/03/22 10:38:04;;;;;;;;;;;;;;;;;;4956392;28;19935;-67
2021/03/22 10:40:31;;;;;;;;;;;;;;;;;;4961183;28;19930;-64
2021/03/22 10:42:57;;;;;;;;;;;;;;;;;;4961994;28;20279;-63
2021/03/22 10:45:24;;;;;;;;;;;;;;;;;;4967586;28;19926;-64
2021/03/22 10:47:50;;;;;;;;;;;;;;;;;;4964362;28;19936;-67
2021/03/22 10:50:17;;;;;;;;;;;;;;;;;;4963512;28;20016;-66
2021/03/22 10:52:43;;;;;;;;;;;;;;;;;;4966587;28;19926;-64
2021/03/22 10:55:10;;;;;;;;;;;;;;;;;;4969833;28;19966;-65
2021/03/22 10:57:36;;;;;;;;;;;;;;;;;;4964363;28;19926;-62
2021/03/22 11:00:03;;;;;;;;;;;;;;;;;;4989444;28;20001;-65
2021/03/22 11:02:29;;;;;;;;;;;;;;;;;;4980529;28;19997;-69
2021/03/22 11:04:56;;;;;;;;;;;;;;;;;;4980041;28;20025;-64
2021/03/22 11:07:22;;;;;;;;;;;;;;;;;;4961972;28;19958;-64
2021/03/22 11:09:49;;;;;;;;;;;;;;;;;;4963746;28;20338;-65
2021/03/22 11:12:15;;;;;;;;;;;;;;;;;;4978479;28;20005;-66
2021/03/22 11:14:42;;;;;;;;;;;;;;;;;;4973039;28;19968;-67
2021/03/22 11:17:10;;;;;;;;;;;;;;;;;;4964357;28;19934;-64
2021/03/22 11:19:36;;;;;;;;;;;;;;;;;;4962273;28;19926;-67
2021/03/22 11:22:03;;;;;;;;;;;;;;;;;;4962012;28;19930;-66
2021/03/22 11:24:32;;;;;;;;;;;;;;;;;;4967185;28;19934;-69
2021/03/22 11:26:59;;;;;;;;;;;;;;;;;;4968103;28;19961;-66
2021/03/22 11:29:25;;;;;;;;;;;;;;;;;;4966422;28;19934;-66
2021/03/22 11:31:52;;;;;;;;;;;;;;;;;;4966552;28;20287;-65
2021/03/22 11:34:20;;;;;;;;;;;;;;;;;;4965673;28;19980;-66
2021/03/22 11:36:47;;;;;;;;;;;;;;;;;;4966519;28;19926;-68
2021/03/22 11:39:13;;;;;;;;;;;;;;;;;;4966902;28;20020;-66
2021/03/22 11:41:40;;;;;;;;;;;;;;;;;;4960891;28;19969;-65
2021/03/22 11:44:06;;;;;;;;;;;;;;;;;;4963103;28;19934;-65
2021/03/22 11:46:33;;;;;;;;;;;;;;;;;;4969217;28;19930;-64
2021/03/22 11:48:59;;;;;;;;;;;;;;;;;;4964711;28;20387;-65
2021/03/22 11:51:26;;;;;;;;;;;;;;;;;;4965316;28;20395;-68
2021/03/22 11:53:52;;;;;;;;;;;;;;;;;;4964313;28;20005;-67
2021/03/22 11:56:20;;;;;;;;;;;;;;;;;;4959216;28;19926;-70
2021/03/22 11:58:46;;;;;;;;;;;;;;;;;;4968737;28;19973;-65
2021/03/22 12:01:13;;;;;;;;;;;;;;;;;;4966211;28;20509;-66
2021/03/22 12:03:40;;;;;;;;;;;;;;;;;;4969772;28;19965;-66
2021/03/22 12:06:06;;;;;;;;;;;;;;;;;;4962995;28;20472;-66
2021/03/22 12:08:33;;;;;;;;;;;;;;;;;;4963206;28;19934;-65
2021/03/22 12:10:59;;;;;;;;;;;;;;;;;;4962248;28;19926;-65
2021/03/22 12:13:26;;;;;;;;;;;;;;;;;;4968188;28;19934;-67
2021/03/22 12:15:52;;;;;;;;;;;;;;;;;;4959998;28;19926;-65
2021/03/22 12:18:18;;;;;;;;;;;;;;;;;;4964420;28;19969;-64
2021/03/22 12:20:45;;;;;;;;;;;;;;;;;;4965254;28;19926;-69
2021/03/22 12:23:11;;;;;;;;;;;;;;;;;;4966379;28;20009;-66
2021/03/22 12:25:38;;;;;;;;;;;;;;;;;;4968297;28;20013;-68
2021/03/22 12:28:04;;;;;;;;;;;;;;;;;;4964126;28;19931;-65
2021/03/22 12:30:31;;;;;;;;;;;;;;;;;;4968507;28;19930;-66
2021/03/22 12:32:58;;;;;;;;;;;;;;;;;;4968173;28;19926;-65
2021/03/22 12:35:24;;;;;;;;;;;;;;;;;;4963061;28;19933;-65
2021/03/22 12:37:51;;;;;;;;;;;;;;;;;;4963678;28;20339;-63
2021/03/22 12:40:17;;;;;;;;;;;;;;;;;;4962563;28;20045;-64
2021/03/22 12:42:44;;;;;;;;;;;;;;;;;;4962041;28;19957;-63
2021/03/22 12:45:10;;;;;;;;;;;;;;;;;;4966820;28;19930;-64
2021/03/22 12:47:37;;;;;;;;;;;;;;;;;;4965981;28;19926;-63
2021/03/22 12:50:03;;;;;;;;;;;;;;;;;;4965688;28;20027;-62
2021/03/22 12:52:30;;;;;;;;;;;;;;;;;;4963179;28;20038;-60
2021/03/22 12:54:56;;;;;;;;;;;;;;;;;;4964750;28;19926;-64
2021/03/22 12:57:23;;;;;;;;;;;;;;;;;;4966924;28;19934;-63
2021/03/22 12:59:50;;;;;;;;;;;;;;;;;;4963742;28;19926;-64
2021/03/22 13:02:16;;;;;;;;;;;;;;;;;;4964918;28;20391;-63
2021/03/22 13:04:43;;;;;;;;;;;;;;;;;;4970022;28;20020;-64
2021/03/22 13:07:09;;;;;;;;;;;;;;;;;;4962332;28;19931;-63
2021/03/22 13:09:36;;;;;;;;;;;;;;;;;;4963595;28;20010;-63
2021/03/22 13:12:02;;;;;;;;;;;;;;;;;;4961892;28;19984;-65
2021/03/22 13:14:29;;;;;;;;;;;;;;;;;;4968650;28;19969;-64
2021/03/22 13:16:55;;;;;;;;;;;;;;;;;;4962760;28;20021;-62
2021/03/22 13:19:22;;;;;;;;;;;;;;;;;;4961025;28;19953;-64
2021/03/22 13:21:48;;;;;;;;;;;;;;;;;;4962521;28;19931;-63
2021/03/22 13:24:15;;;;;;;;;;;;;;;;;;4967497;28;19994;-63
2021/03/22 13:26:41;;;;;;;;;;;;;;;;;;4964676;28;19978;-65
2021/03/22 13:29:09;;;;;;;;;;;;;;;;;;4963180;28;19927;-63
2021/03/22 13:31:36;;;;;;;;;;;;;;;;;;4963529;28;19961;-64
2021/03/22 13:34:02;;;;;;;;;;;;;;;;;;4960283;28;19988;-65
2021/03/22 13:36:29;;;;;;;;;;;;;;;;;;4962963;28;20330;-64
2021/03/22 13:38:55;;;;;;;;;;;;;;;;;;4964037;28;19930;-62
2021/03/22 13:41:22;;;;;;;;;;;;;;;;;;4959874;28;19930;-64
2021/03/22 13:43:48;;;;;;;;;;;;;;;;;;4961403;28;19980;-63
2021/03/22 13:46:15;;;;;;;;;;;;;;;;;;4956135;28;19926;-62
2021/03/22 13:48:41;;;;;;;;;;;;;;;;;;4962893;28;19988;-62
2021/03/22 13:51:08;;;;;;;;;;;;;;;;;;4964307;28;20017;-62
2021/03/22 13:53:34;;;;;;;;;;;;;;;;;;4969008;28;20013;-63
2021/03/22 13:56:01;;;;;;;;;;;;;;;;;;4956766;28;19969;-65
2021/03/22 13:58:29;;;;;;;;;;;;;;;;;;4963684;28;19926;-62
2021/03/22 14:00:56;;;;;;;;;;;;;;;;;;4967668;28;19933;-62
2021/03/22 14:03:22;;;;;;;;;;;;;;;;;;4970255;28;20715;-63
2021/03/22 14:05:49;;;;;;;;;;;;;;;;;;4969043;28;20397;-63
2021/03/22 14:08:16;;;;;;;;;;;;;;;;;;4967842;28;20005;-64
2021/03/22 14:10:43;;;;;;;;;;;;;;;;;;4964674;28;20399;-65
2021/03/22 14:13:09;;;;;;;;;;;;;;;;;;4963984;28;20323;-60
2021/03/22 14:15:36;;;;;;;;;;;;;;;;;;4967043;28;20318;-64
2021/03/22 14:18:02;;;;;;;;;;;;;;;;;;4959072;28;20648;-62
2021/03/22 14:20:29;;;;;;;;;;;;;;;;;;4963527;28;19985;-63
2021/03/22 14:22:55;;;;;;;;;;;;;;;;;;4967285;28;20020;-63
2021/03/22 14:25:22;;;;;;;;;;;;;;;;;;4963143;28;19926;-63
2021/03/22 14:27:48;;;;;;;;;;;;;;;;;;4961471;28;20379;-63
2021/03/22 14:30:15;;;;;;;;;;;;;;;;;;4968184;28;19972;-61
2021/03/22 14:32:41;;;;;;;;;;;;;;;;;;4969181;28;19976;-63
2021/03/22 14:35:07;;;;;;;;;;;;;;;;;;4965470;28;20025;-63
2021/03/22 14:37:34;;;;;;;;;;;;;;;;;;4962849;28;19933;-64
2021/03/22 14:40:00;;;;;;;;;;;;;;;;;;4962583;28;20382;-63
2021/03/22 14:42:27;;;;;;;;;;;;;;;;;;4971208;28;19941;-63
2021/03/22 14:44:53;;;;;;;;;;;;;;;;;;4964766;28;20006;-64
2021/03/22 14:47:20;;;;;;;;;;;;;;;;;;4969874;28;19932;-64
2021/03/22 14:49:46;;;;;;;;;;;;;;;;;;4966068;28;19937;-64
2021/03/22 14:52:13;;;;;;;;;;;;;;;;;;4973501;28;20394;-65
2021/03/22 14:54:39;;;;;;;;;;;;;;;;;;4968096;28;20338;-63
2021/03/22 14:57:06;;;;;;;;;;;;;;;;;;4969577;28;20017;-64
2021/03/22 14:59:32;;;;;;;;;;;;;;;;;;4964444;28;20285;-65
2021/03/22 15:01:59;;;;;;;;;;;;;;;;;;4967217;28;19926;-65
2021/03/22 15:04:26;;;;;;;;;;;;;;;;;;4967877;28;19958;-65
2021/03/22 15:06:52;;;;;;;;;;;;;;;;;;4965475;28;20354;-65
2021/03/22 15:09:19;;;;;;;;;;;;;;;;;;4963184;28;19930;-65
2021/03/22 15:11:45;;;;;;;;;;;;;;;;;;4968055;28;19946;-65
2021/03/22 15:14:12;;;;;;;;;;;;;;;;;;4969411;28;20013;-65
2021/03/22 15:16:38;;;;;;;;;;;;;;;;;;4974717;28;19934;-64
2021/03/22 15:19:05;;;;;;;;;;;;;;;;;;4965337;28;20404;-63
2021/03/22 15:21:31;;;;;;;;;;;;;;;;;;4972672;28;20067;-63
2021/03/22 15:23:58;;;;;;;;;;;;;;;;;;4974553;28;20290;-64
2021/03/22 15:26:25;;;;;;;;;;;;;;;;;;4967450;28;20537;-65
2021/03/22 15:28:52;;;;;;;;;;;;;;;;;;4968169;28;19933;-65
2021/03/22 15:31:18;;;;;;;;;;;;;;;;;;4968554;28;19930;-63
2021/03/22 15:33:45;;;;;;;;;;;;;;;;;;4968177;28;20446;-63
2021/03/22 15:36:11;;;;;;;;;;;;;;;;;;4972910;28;19926;-64
2021/03/22 15:38:38;;;;;;;;;;;;;;;;;;4975813;28;20009;-64
2021/03/22 15:41:04;;;;;;;;;;;;;;;;;;4972997;28;20000;-62
2021/03/22 15:43:31;;;;;;;;;;;;;;;;;;4975078;28;19930;-66
2021/03/22 15:45:57;;;;;;;;;;;;;;;;;;4975170;28;20022;-64
2021/03/22 15:48:24;;;;;;;;;;;;;;;;;;4972405;28;19930;-63
2021/03/22 15:50:50;;;;;;;;;;;;;;;;;;4971031;28;19937;-63
2021/03/22 15:53:17;;;;;;;;;;;;;;;;;;4971519;28;20358;-64
2021/03/22 15:55:43;;;;;;;;;;;;;;;;;;4999393;23;19998;-65
2021/03/22 15:58:10;;;;;;;;;;;;;;;;;;4967673;28;20402;-66
2021/03/22 16:00:36;;;;;;;;;;;;;;;;;;4967160;28;19934;-66
2021/03/22 16:03:03;;;;;;;;;;;;;;;;;;4966890;28;19949;-66
2021/03/22 16:05:30;;;;;;;;;;;;;;;;;;4968038;28;19933;-64
2021/03/22 16:07:56;;;;;;;;;;;;;;;;;;4968793;28;19978;-65
2021/03/22 16:10:23;;;;;;;;;;;;;;;;;;4966085;28;20349;-64
2021/03/22 16:12:49;;;;;;;;;;;;;;;;;;4963605;28;20089;-63
2021/03/22 16:15:16;;;;;;;;;;;;;;;;;;4968173;28;20385;-66
2021/03/22 16:17:42;;;;;;;;;;;;;;;;;;4966562;28;19937;-64
2021/03/22 16:20:09;;;;;;;;;;;;;;;;;;4967963;28;19980;-63
2021/03/22 16:22:35;;;;;;;;;;;;;;;;;;4961143;28;19933;-65
2021/03/22 16:25:02;;;;;;;;;;;;;;;;;;4962117;28;19950;-64
2021/03/22 16:27:28;;;;;;;;;;;;;;;;;;4966008;28;20016;-64
2021/03/22 16:29:58;;;;;;;;;;;;;;;;;;4961151;28;19976;-65
2021/03/22 16:32:25;;;;;;;;;;;;;;;;;;4963585;28;19926;-65
2021/03/22 16:34:51;;;;;;;;;;;;;;;;;;4963891;28;20014;-65
2021/03/22 16:37:18;;;;;;;;;;;;;;;;;;4965541;28;20264;-64
2021/03/22 16:39:44;;;;;;;;;;;;;;;;;;4966082;28;19973;-65